createdAt,value
2017-09-25T00:02:22.721Z,14.06
2017-09-25T00:04:51.053Z,14.05
2017-09-25T00:07:19.383Z,14.03
2017-09-25T00:09:47.736Z,14.00
2017-09-25T00:12:16.053Z,13.98
2017-09-25T00:14:44.382Z,13.96
2017-09-25T00:17:12.699Z,13.92
2017-09-25T00:19:41.024Z,13.91
2017-09-25T00:22:09.337Z,13.87
2017-09-25T00:24:38.355Z,13.84
2017-09-25T00:27:06.674Z,13.83
2017-09-25T00:29:35.753Z,13.87
2017-09-25T00:32:04.079Z,13.87
2017-09-25T00:34:32.375Z,13.84
2017-09-25T00:37:00.712Z,13.82
2017-09-25T00:39:29.022Z,13.83
2017-09-25T00:41:57.320Z,13.81
2017-09-25T00:44:25.636Z,13.78
2017-09-25T00:46:53.949Z,13.75
2017-09-25T00:49:23.025Z,13.74
2017-09-25T00:51:51.331Z,13.72
2017-09-25T00:54:24.171Z,13.69
2017-09-25T00:56:52.488Z,13.65
2017-09-25T00:59:29.459Z,13.65
2017-09-25T01:02:16.397Z,13.63
2017-09-25T01:05:01.614Z,13.60
2017-09-25T01:07:29.946Z,13.62
2017-09-25T01:09:58.366Z,13.64
2017-09-25T01:12:26.688Z,13.66
2017-09-25T01:14:55.798Z,13.66
2017-09-25T01:17:24.878Z,13.66
2017-09-25T01:19:54.320Z,13.66
2017-09-25T01:22:22.653Z,13.64
2017-09-25T01:24:50.964Z,13.64
2017-09-25T01:27:20.025Z,13.64
2017-09-25T01:29:48.375Z,13.65
2017-09-25T01:32:16.708Z,13.63
2017-09-25T01:34:45.021Z,13.64
2017-09-25T01:37:13.355Z,13.65
2017-09-25T01:39:41.671Z,13.67
2017-09-25T01:42:10.772Z,13.68
2017-09-25T01:44:39.893Z,13.70
2017-09-25T01:47:08.195Z,13.73
2017-09-25T01:49:36.499Z,13.76
2017-09-25T01:52:04.819Z,13.77
2017-09-25T01:54:33.888Z,13.80
2017-09-25T01:57:02.202Z,13.85
2017-09-25T01:59:31.274Z,13.85
2017-09-25T02:01:59.582Z,13.88
2017-09-25T02:04:28.537Z,13.93
2017-09-25T02:06:56.858Z,14.01
2017-09-25T02:09:25.175Z,14.10
2017-09-25T02:11:53.491Z,14.19
2017-09-25T02:14:21.805Z,14.26
2017-09-25T02:16:50.128Z,14.33
2017-09-25T02:19:18.450Z,14.41
2017-09-25T02:21:46.782Z,14.45
2017-09-25T02:24:15.086Z,14.50
2017-09-25T02:26:43.401Z,14.54
2017-09-25T02:29:12.472Z,14.60
2017-09-25T02:31:40.828Z,14.63
2017-09-25T02:34:09.147Z,14.67
2017-09-25T02:36:37.479Z,14.68
2017-09-25T02:39:05.795Z,14.70
2017-09-25T02:41:34.137Z,14.73
2017-09-25T02:44:02.467Z,14.74
2017-09-25T02:46:30.769Z,14.75
2017-09-25T02:48:59.869Z,14.77
2017-09-25T02:51:28.963Z,14.79
2017-09-25T02:53:57.314Z,14.78
2017-09-25T02:56:25.628Z,14.80
2017-09-25T02:58:53.925Z,14.82
2017-09-25T03:01:23.034Z,14.81
2017-09-25T03:03:51.355Z,14.82
2017-09-25T03:06:19.658Z,14.82
2017-09-25T03:08:47.978Z,14.80
2017-09-25T03:11:16.291Z,14.81
2017-09-25T03:13:44.603Z,14.81
2017-09-25T03:16:12.907Z,14.82
2017-09-25T03:18:41.983Z,14.82
2017-09-25T03:21:10.300Z,14.82
2017-09-25T03:23:39.396Z,14.81
2017-09-25T03:26:08.457Z,14.81
2017-09-25T03:28:36.760Z,14.83
2017-09-25T03:31:05.076Z,14.85
2017-09-25T03:33:33.397Z,14.85
2017-09-25T03:36:01.734Z,14.85
2017-09-25T03:38:30.048Z,14.86
2017-09-25T03:40:58.350Z,14.86
2017-09-25T03:43:26.682Z,14.87
2017-09-25T03:45:54.986Z,14.88
2017-09-25T03:48:23.326Z,14.87
2017-09-25T03:50:52.421Z,14.88
2017-09-25T03:53:21.490Z,14.89
2017-09-25T03:55:49.797Z,14.89
2017-09-25T03:58:18.884Z,14.88
2017-09-25T04:00:47.204Z,14.86
2017-09-25T04:03:15.516Z,14.82
2017-09-25T04:05:43.822Z,14.72
2017-09-25T04:08:12.158Z,14.60
2017-09-25T04:10:40.488Z,14.51
2017-09-25T04:13:08.818Z,14.43
2017-09-25T04:15:37.139Z,14.38
2017-09-25T04:18:05.438Z,14.31
2017-09-25T04:20:33.762Z,14.25
2017-09-25T04:23:02.060Z,14.19
2017-09-25T04:25:30.374Z,14.12
2017-09-25T04:27:58.661Z,14.09
2017-09-25T04:30:27.743Z,14.04
2017-09-25T04:32:56.058Z,13.99
2017-09-25T04:35:25.223Z,13.95
2017-09-25T04:37:53.527Z,13.93
2017-09-25T04:40:22.678Z,13.90
2017-09-25T04:42:50.988Z,13.90
2017-09-25T04:45:19.303Z,13.87
2017-09-25T04:47:48.470Z,13.83
2017-09-25T04:50:16.886Z,13.79
2017-09-25T04:52:45.970Z,13.77
2017-09-25T04:55:14.288Z,13.77
2017-09-25T04:57:42.612Z,13.77
2017-09-25T05:00:10.934Z,13.77
2017-09-25T05:02:40.028Z,13.75
2017-09-25T05:05:08.330Z,13.76
2017-09-25T05:07:37.493Z,13.77
2017-09-25T05:10:05.791Z,13.79
2017-09-25T05:12:34.091Z,13.80
2017-09-25T05:15:03.201Z,13.77
2017-09-25T05:17:31.524Z,13.77
2017-09-25T05:19:59.818Z,13.77
2017-09-25T05:22:28.123Z,13.76
2017-09-25T05:24:57.232Z,13.80
2017-09-25T05:27:25.554Z,13.86
2017-09-25T05:29:53.850Z,13.93
2017-09-25T05:32:22.675Z,14.01
2017-09-25T05:34:51.756Z,14.08
2017-09-25T05:37:20.809Z,14.12
2017-09-25T05:39:49.146Z,14.16
2017-09-25T05:42:17.635Z,14.25
2017-09-25T05:44:46.760Z,14.30
2017-09-25T05:47:15.355Z,14.36
2017-09-25T05:49:43.671Z,14.42
2017-09-25T05:52:11.994Z,14.48
2017-09-25T05:54:41.066Z,14.55
2017-09-25T05:57:09.389Z,14.60
2017-09-25T05:59:37.690Z,14.66
2017-09-25T06:02:05.989Z,14.71
2017-09-25T06:04:34.336Z,14.78
2017-09-25T06:07:02.659Z,14.84
2017-09-25T06:09:30.962Z,14.90
2017-09-25T06:11:59.317Z,14.95
2017-09-25T06:14:27.649Z,15.00
2017-09-25T06:16:56.714Z,15.07
2017-09-25T06:19:25.017Z,15.13
2017-09-25T06:21:54.097Z,15.18
2017-09-25T06:24:22.407Z,15.23
2017-09-25T06:26:51.492Z,15.26
2017-09-25T06:29:20.597Z,15.30
2017-09-25T06:31:49.677Z,15.35
2017-09-25T06:34:18.008Z,15.43
2017-09-25T06:36:46.315Z,15.49
2017-09-25T06:39:14.635Z,15.57
2017-09-25T06:41:42.947Z,15.63
2017-09-25T06:44:12.025Z,15.71
2017-09-25T06:46:41.115Z,15.76
2017-09-25T06:49:09.443Z,15.80
2017-09-25T06:51:37.903Z,15.86
2017-09-25T06:54:06.995Z,15.89
2017-09-25T06:56:36.166Z,15.94
2017-09-25T06:59:04.473Z,15.97
2017-09-25T07:01:33.563Z,15.99
2017-09-25T07:04:01.896Z,16.02
2017-09-25T07:06:30.204Z,16.06
2017-09-25T07:08:58.534Z,16.10
2017-09-25T07:11:27.611Z,16.13
2017-09-25T07:13:55.925Z,16.18
2017-09-25T07:16:24.225Z,16.23
2017-09-25T07:18:52.536Z,16.26
2017-09-25T07:21:20.852Z,16.34
2017-09-25T07:23:49.933Z,16.42
2017-09-25T07:26:18.237Z,16.47
2017-09-25T07:28:46.564Z,16.56
2017-09-25T07:31:15.031Z,16.64
2017-09-25T07:33:43.340Z,16.75
2017-09-25T07:36:11.681Z,16.80
2017-09-25T07:38:40.061Z,16.89
2017-09-25T07:41:08.375Z,17.01
2017-09-25T07:43:36.707Z,17.11
2017-09-25T07:46:05.804Z,17.23
2017-09-25T07:48:34.901Z,17.31
2017-09-25T07:51:03.980Z,17.39
2017-09-25T07:53:32.304Z,17.47
2017-09-25T07:56:00.602Z,17.55
2017-09-25T07:58:28.916Z,17.68
2017-09-25T08:00:57.236Z,17.79
2017-09-25T08:03:26.322Z,17.85
2017-09-25T08:05:54.635Z,17.88
2017-09-25T08:08:22.967Z,17.99
2017-09-25T08:10:51.320Z,18.10
2017-09-25T08:13:19.790Z,18.26
2017-09-25T08:15:48.100Z,18.44
2017-09-25T08:18:16.438Z,18.48
2017-09-25T08:20:44.756Z,18.55
2017-09-25T08:23:26.906Z,18.48
2017-09-25T08:26:33.880Z,18.45
2017-09-25T08:29:02.200Z,18.49
2017-09-25T08:31:30.548Z,18.67
2017-09-25T08:33:58.873Z,18.85
2017-09-25T08:36:27.184Z,18.99
2017-09-25T08:38:56.166Z,19.11
2017-09-25T08:41:25.251Z,19.14
2017-09-25T08:43:54.311Z,19.10
2017-09-25T08:46:22.629Z,19.07
2017-09-25T08:48:51.716Z,19.12
2017-09-25T08:51:20.023Z,19.18
2017-09-25T08:53:49.103Z,19.28
2017-09-25T08:56:17.395Z,19.37
2017-09-25T08:58:46.495Z,19.40
2017-09-25T09:01:15.581Z,19.32
2017-09-25T09:03:43.918Z,19.21
2017-09-25T09:06:12.225Z,19.23
2017-09-25T09:08:47.309Z,19.30
2017-09-25T09:11:16.373Z,19.29
2017-09-25T09:13:44.700Z,19.37
2017-09-25T09:16:12.999Z,19.39
2017-09-25T09:18:41.359Z,19.41
2017-09-25T09:21:09.673Z,19.35
2017-09-25T09:23:37.985Z,19.36
2017-09-25T09:26:06.294Z,19.45
2017-09-25T09:28:35.381Z,19.56
2017-09-25T09:31:04.457Z,19.58
2017-09-25T09:33:32.845Z,19.48
2017-09-25T09:36:01.145Z,19.37
2017-09-25T09:38:30.208Z,19.35
2017-09-25T09:40:58.525Z,19.53
2017-09-25T09:43:26.840Z,19.69
2017-09-25T09:45:55.149Z,19.72
2017-09-25T09:48:23.479Z,19.65
2017-09-25T09:50:52.557Z,19.56
2017-09-25T09:53:20.861Z,19.53
2017-09-25T09:55:49.943Z,19.43
2017-09-25T09:58:18.254Z,19.43
2017-09-25T10:00:46.572Z,19.40
2017-09-25T10:03:14.878Z,19.41
2017-09-25T10:05:43.192Z,19.51
2017-09-25T10:08:12.275Z,19.63
2017-09-25T10:10:40.594Z,19.65
2017-09-25T10:13:08.921Z,19.73
2017-09-25T10:15:37.238Z,19.75
2017-09-25T10:18:05.552Z,19.77
2017-09-25T10:20:33.876Z,19.79
2017-09-25T10:23:02.201Z,19.78
2017-09-25T10:25:30.523Z,19.82
2017-09-25T10:27:58.865Z,19.90
2017-09-25T10:30:27.172Z,19.95
2017-09-25T10:32:55.493Z,20.05
2017-09-25T10:35:24.570Z,20.19
2017-09-25T10:37:52.892Z,20.26
2017-09-25T10:40:21.977Z,20.29
2017-09-25T10:42:51.079Z,20.24
2017-09-25T10:45:20.160Z,20.11
2017-09-25T10:47:48.488Z,20.15
2017-09-25T10:50:16.792Z,20.33
2017-09-25T10:52:45.104Z,20.43
2017-09-25T10:55:13.442Z,20.56
2017-09-25T10:57:41.754Z,20.69
2017-09-25T11:00:10.062Z,20.82
2017-09-25T11:02:39.150Z,20.88
2017-09-25T11:05:07.446Z,20.85
2017-09-25T11:07:36.552Z,20.88
2017-09-25T11:10:05.637Z,21.07
2017-09-25T11:12:33.934Z,21.21
2017-09-25T11:15:03.028Z,21.39
2017-09-25T11:17:32.118Z,21.49
2017-09-25T11:20:00.459Z,21.59
2017-09-25T11:22:28.755Z,21.62
2017-09-25T11:24:57.084Z,21.69
2017-09-25T11:27:26.152Z,21.68
2017-09-25T11:29:54.476Z,21.69
2017-09-25T11:32:22.802Z,21.75
2017-09-25T11:34:51.114Z,21.83
2017-09-25T11:37:20.190Z,21.78
2017-09-25T11:39:48.760Z,21.74
2017-09-25T11:42:17.084Z,21.73
2017-09-25T11:44:46.154Z,21.75
2017-09-25T11:47:14.512Z,21.79
2017-09-25T11:49:42.833Z,21.94
2017-09-25T11:52:11.132Z,22.10
2017-09-25T11:54:40.215Z,22.18
2017-09-25T11:57:08.510Z,22.23
2017-09-25T11:59:37.600Z,22.32
2017-09-25T12:02:05.874Z,22.20
2017-09-25T12:04:34.188Z,22.11
2017-09-25T12:07:02.492Z,21.98
2017-09-25T12:09:30.784Z,21.79
2017-09-25T12:11:59.086Z,21.71
2017-09-25T12:14:27.413Z,21.79
2017-09-25T12:16:55.730Z,21.86
2017-09-25T12:19:24.038Z,21.77
2017-09-25T12:21:52.342Z,21.70
2017-09-25T12:24:21.468Z,21.72
2017-09-25T12:26:49.771Z,21.68
2017-09-25T12:29:18.139Z,21.77
2017-09-25T12:31:46.462Z,21.94
2017-09-25T12:34:14.764Z,22.13
2017-09-25T12:36:43.078Z,22.30
2017-09-25T12:39:11.382Z,22.36
2017-09-25T12:41:40.390Z,22.39
2017-09-25T12:44:08.728Z,22.45
2017-09-25T12:46:37.040Z,22.53
2017-09-25T12:49:05.472Z,22.47
2017-09-25T12:51:33.844Z,22.17
2017-09-25T12:54:02.146Z,21.90
2017-09-25T12:56:31.232Z,21.65
2017-09-25T12:58:59.536Z,21.46
2017-09-25T13:01:28.594Z,21.27
2017-09-25T13:03:57.064Z,21.15
2017-09-25T13:06:25.389Z,21.14
2017-09-25T13:08:55.270Z,21.15
2017-09-25T13:11:23.580Z,21.25
2017-09-25T13:13:51.871Z,21.21
2017-09-25T13:16:20.948Z,21.10
2017-09-25T13:18:49.271Z,21.05
2017-09-25T13:21:17.612Z,20.97
2017-09-25T13:23:45.929Z,20.91
2017-09-25T13:26:14.271Z,20.90
2017-09-25T13:28:42.594Z,20.94
2017-09-25T13:31:10.916Z,20.98
2017-09-25T13:33:39.236Z,20.97
2017-09-25T13:36:07.545Z,20.94
2017-09-25T13:38:35.872Z,20.94
2017-09-25T13:41:04.192Z,20.98
2017-09-25T13:43:33.362Z,21.03
2017-09-25T13:46:01.691Z,21.07
2017-09-25T13:48:30.002Z,21.11
2017-09-25T13:50:59.093Z,21.14
2017-09-25T13:53:27.414Z,21.16
2017-09-25T13:55:55.739Z,21.18
2017-09-25T13:58:24.064Z,21.18
2017-09-25T14:03:25.831Z,21.55
2017-09-25T14:05:54.149Z,21.91
2017-09-25T14:08:22.465Z,22.27
2017-09-25T14:10:50.764Z,22.44
2017-09-25T14:13:19.083Z,22.54
2017-09-25T14:15:47.409Z,22.54
2017-09-25T14:18:15.729Z,22.42
2017-09-25T14:20:44.041Z,22.20
2017-09-25T14:23:12.365Z,21.95
2017-09-25T14:25:40.671Z,21.79
2017-09-25T14:28:08.984Z,21.63
2017-09-25T14:30:37.295Z,21.52
2017-09-25T14:33:05.598Z,21.39
2017-09-25T14:35:33.914Z,21.31
2017-09-25T14:38:02.233Z,21.28
2017-09-25T14:40:30.528Z,21.23
2017-09-25T14:42:58.827Z,21.19
2017-09-25T14:45:27.149Z,21.19
2017-09-25T14:47:55.467Z,21.15
2017-09-25T14:50:23.786Z,21.10
2017-09-25T14:52:52.136Z,21.04
2017-09-25T14:55:20.673Z,21.00
2017-09-25T14:57:49.006Z,21.00
2017-09-25T15:00:17.332Z,20.98
2017-09-25T15:02:45.643Z,20.93
2017-09-25T15:05:14.738Z,20.86
2017-09-25T15:07:43.835Z,20.81
2017-09-25T15:10:12.943Z,20.79
2017-09-25T15:12:42.113Z,20.75
2017-09-25T15:15:10.411Z,20.71
2017-09-25T15:17:38.718Z,20.70
2017-09-25T15:20:07.039Z,20.67
2017-09-25T15:22:35.345Z,20.72
2017-09-25T15:25:03.676Z,20.75
2017-09-25T15:27:32.058Z,20.75
2017-09-25T15:30:00.365Z,20.72
2017-09-25T15:32:28.703Z,20.67
2017-09-25T15:34:57.032Z,20.72
2017-09-25T15:37:25.352Z,20.77
2017-09-25T15:39:53.664Z,20.91
2017-09-25T15:42:21.984Z,20.99
2017-09-25T15:44:50.322Z,21.07
2017-09-25T15:47:18.642Z,21.13
2017-09-25T15:49:46.950Z,21.21
2017-09-25T15:52:15.283Z,21.25
2017-09-25T15:54:43.587Z,21.28
2017-09-25T15:57:11.950Z,21.28
2017-09-25T15:59:40.277Z,21.23
2017-09-25T16:02:08.587Z,21.22
2017-09-25T16:04:36.933Z,21.21
2017-09-25T16:07:05.244Z,21.22
2017-09-25T16:09:34.368Z,21.16
2017-09-25T16:12:02.696Z,21.10
2017-09-25T16:14:31.076Z,21.01
2017-09-25T16:16:59.520Z,20.91
2017-09-25T16:19:27.854Z,20.77
2017-09-25T16:21:56.974Z,20.64
2017-09-25T16:24:26.072Z,20.54
2017-09-25T16:26:55.166Z,20.46
2017-09-25T16:29:24.238Z,20.39
2017-09-25T16:31:52.530Z,20.27
2017-09-25T16:34:20.890Z,20.13
2017-09-25T16:36:49.204Z,19.96
2017-09-25T16:39:17.528Z,19.83
2017-09-25T16:41:45.909Z,19.75
2017-09-25T16:44:14.203Z,19.68
2017-09-25T16:46:42.518Z,19.63
2017-09-25T16:49:10.823Z,19.57
2017-09-25T16:51:39.934Z,19.52
2017-09-25T16:54:09.075Z,19.46
2017-09-25T16:56:37.405Z,19.40
2017-09-25T16:59:06.515Z,19.35
2017-09-25T17:01:34.816Z,19.29
2017-09-25T17:04:03.132Z,19.24
2017-09-25T17:06:31.466Z,19.18
2017-09-25T17:08:59.792Z,19.14
2017-09-25T17:11:28.098Z,19.07
2017-09-25T17:13:56.589Z,18.96
2017-09-25T17:16:25.712Z,18.86
2017-09-25T17:18:54.175Z,18.80
2017-09-25T17:21:22.686Z,18.71
2017-09-25T17:23:51.192Z,18.66
2017-09-25T17:26:19.708Z,18.59
2017-09-25T17:28:48.318Z,18.56
2017-09-25T17:31:16.912Z,18.55
2017-09-25T17:33:45.559Z,18.51
2017-09-25T17:36:15.000Z,18.51
2017-09-25T17:38:43.631Z,18.49
2017-09-25T17:41:12.240Z,18.46
2017-09-25T17:43:41.384Z,18.39
2017-09-25T17:46:09.697Z,18.34
2017-09-25T17:48:38.000Z,18.30
2017-09-25T17:51:06.314Z,18.25
2017-09-25T17:53:34.630Z,18.21
2017-09-25T17:56:03.771Z,18.20
2017-09-25T17:58:32.122Z,18.18
2017-09-25T18:01:00.433Z,18.17
2017-09-25T18:03:28.753Z,18.17
2017-09-25T18:05:57.056Z,18.14
2017-09-25T18:08:25.362Z,18.10
2017-09-25T18:10:53.671Z,18.07
2017-09-25T18:13:21.980Z,18.06
2017-09-25T18:15:50.281Z,18.02
2017-09-25T18:18:19.344Z,18.03
2017-09-25T18:20:47.647Z,18.00
2017-09-25T18:23:16.728Z,17.99
2017-09-25T18:25:45.032Z,17.96
2017-09-25T18:28:14.132Z,17.92
2017-09-25T18:30:43.207Z,17.87
2017-09-25T18:33:11.505Z,17.85
2017-09-25T18:35:39.806Z,17.83
2017-09-25T18:38:08.883Z,17.81
2017-09-25T18:40:37.303Z,17.76
2017-09-25T18:43:05.597Z,17.69
2017-09-25T18:45:33.923Z,17.62
2017-09-25T18:48:02.221Z,17.56
2017-09-25T18:50:31.287Z,17.50
2017-09-25T18:52:59.591Z,17.46
2017-09-25T18:55:27.924Z,17.40
2017-09-25T18:57:56.224Z,17.34
2017-09-25T19:00:24.523Z,17.29
2017-09-25T19:02:52.833Z,17.23
2017-09-25T19:05:21.930Z,17.20
2017-09-25T19:07:50.245Z,17.13
2017-09-25T19:10:18.555Z,17.10
2017-09-25T19:12:46.876Z,17.07
2017-09-25T19:15:15.963Z,17.06
2017-09-25T19:17:45.027Z,17.03
2017-09-25T19:20:13.338Z,16.99
2017-09-25T19:22:41.649Z,16.96
2017-09-25T19:25:09.961Z,16.94
2017-09-25T19:27:38.263Z,16.96
2017-09-25T19:30:06.571Z,16.98
2017-09-25T19:32:34.873Z,17.01
2017-09-25T19:35:03.209Z,17.04
2017-09-25T19:37:31.611Z,17.06
2017-09-25T19:39:59.923Z,17.08
2017-09-25T19:42:28.226Z,17.09
2017-09-25T19:44:56.551Z,17.09
2017-09-25T19:47:24.862Z,17.12
2017-09-25T19:49:55.699Z,17.13
2017-09-25T19:52:24.014Z,17.17
2017-09-25T20:08:29.421Z,17.11
2017-09-25T20:10:59.078Z,17.11
2017-09-25T20:13:27.398Z,17.12
2017-09-25T20:15:59.146Z,17.12
2017-09-25T20:18:28.252Z,17.13
2017-09-25T20:20:56.742Z,17.14
2017-09-25T20:23:25.857Z,17.13
2017-09-25T20:25:54.340Z,17.13
2017-09-25T20:28:22.643Z,17.13
2017-09-25T20:30:51.739Z,17.12
2017-09-25T20:33:20.072Z,17.11
2017-09-25T20:35:49.173Z,17.12
2017-09-25T20:38:17.501Z,17.11
2017-09-25T20:40:46.653Z,17.09
2017-09-25T20:43:14.975Z,17.09
2017-09-25T20:45:43.316Z,17.07
2017-09-25T20:48:11.648Z,17.07
2017-09-25T20:50:40.015Z,17.06
2017-09-25T20:53:08.360Z,17.06
2017-09-25T20:55:36.687Z,17.05
2017-09-25T20:58:05.054Z,17.05
2017-09-25T21:00:34.118Z,17.04
2017-09-25T21:03:02.560Z,17.03
2017-09-25T21:05:30.917Z,17.03
2017-09-25T21:08:00.016Z,17.01
2017-09-25T21:10:29.174Z,16.99
2017-09-25T21:12:57.508Z,16.99
2017-09-25T21:15:26.595Z,16.97
2017-09-25T21:17:55.876Z,16.96
2017-09-25T21:20:25.078Z,16.95
2017-09-25T21:22:53.454Z,16.95
2017-09-25T21:25:21.762Z,16.95
2017-09-25T21:27:50.892Z,16.95
2017-09-25T21:30:19.312Z,16.94
2017-09-25T21:32:47.634Z,16.93
2017-09-25T21:35:16.706Z,16.92
2017-09-25T21:37:45.054Z,16.91
2017-09-25T21:40:13.407Z,16.91
2017-09-25T21:42:42.497Z,16.92
2017-09-25T21:45:11.585Z,16.91
2017-09-25T21:47:39.900Z,16.90
2017-09-25T21:50:08.236Z,16.89
2017-09-25T21:52:36.550Z,16.89
2017-09-25T21:55:05.621Z,16.88
2017-09-25T21:57:33.953Z,16.88
2017-09-25T22:00:02.267Z,16.87
2017-09-25T22:02:31.298Z,16.86
2017-09-25T22:05:00.386Z,16.84
2017-09-25T22:07:28.699Z,16.85
2017-09-25T22:09:56.998Z,16.82
2017-09-25T22:12:25.311Z,16.81
2017-09-25T22:14:53.626Z,16.80
2017-09-25T22:17:22.796Z,16.78
2017-09-25T22:19:51.101Z,16.77
2017-09-25T22:22:19.402Z,16.78
2017-09-25T22:24:48.516Z,16.78
2017-09-25T22:27:16.832Z,16.79
2017-09-25T22:29:45.220Z,16.78
2017-09-25T22:32:13.540Z,16.79
2017-09-25T22:34:42.635Z,16.78
2017-09-25T22:37:11.742Z,16.78
2017-09-25T22:39:40.830Z,16.79
2017-09-25T22:42:09.206Z,16.77
2017-09-25T22:44:40.512Z,16.80
2017-09-25T22:47:08.848Z,16.78
2017-09-25T22:49:37.936Z,16.77
2017-09-25T22:52:06.274Z,16.77
2017-09-25T22:54:34.606Z,16.76
2017-09-25T22:57:03.689Z,16.75
2017-09-25T22:59:32.004Z,16.75
2017-09-25T23:02:01.088Z,16.75
2017-09-25T23:04:31.036Z,16.76
2017-09-25T23:06:59.376Z,16.75
2017-09-25T23:09:43.498Z,16.74
2017-09-25T23:12:11.815Z,16.75
2017-09-25T23:14:40.112Z,16.74
2017-09-25T23:17:09.212Z,16.73
2017-09-25T23:19:38.286Z,16.73
2017-09-25T23:22:08.120Z,16.72
2017-09-25T23:24:37.187Z,16.73
2017-09-25T23:27:05.498Z,16.72
2017-09-25T23:29:37.624Z,16.71
2017-09-25T23:32:05.927Z,16.70
2017-09-25T23:34:34.279Z,16.69
2017-09-25T23:37:02.606Z,16.67
2017-09-25T23:39:32.528Z,16.66
2017-09-25T23:42:01.594Z,16.65
2017-09-25T23:44:29.888Z,16.65
2017-09-25T23:46:58.182Z,16.64
2017-09-25T23:49:27.278Z,16.62
2017-09-25T23:51:55.597Z,16.61
2017-09-25T23:54:23.892Z,16.61
2017-09-25T23:56:52.220Z,16.61
2017-09-25T23:59:20.639Z,16.60
